createdAt,value
2023-03-24T00:00:24.704Z,3.00
2023-03-24T00:03:17.298Z,10.50
2023-03-24T00:05:50.524Z,8.10
2023-03-24T00:08:19.932Z,3.88
2023-03-24T00:10:51.180Z,3.80
2023-03-24T00:13:22.503Z,4.57
2023-03-24T00:15:52.353Z,3.40
2023-03-24T00:18:22.622Z,3.35
2023-03-24T00:20:58.984Z,4.00
2023-03-24T00:23:32.454Z,3.63
2023-03-24T00:26:04.111Z,3.60
2023-03-24T00:28:37.135Z,4.10
2023-03-24T00:31:08.963Z,3.92
2023-03-24T00:33:40.631Z,3.90
2023-03-24T00:36:13.128Z,3.65
2023-03-24T00:38:43.691Z,4.00
2023-03-24T00:41:13.353Z,4.20
2023-03-24T00:43:44.406Z,4.45
2023-03-24T00:46:28.763Z,4.72
2023-03-24T00:49:03.763Z,4.07
2023-03-24T00:51:36.046Z,4.30
2023-03-24T00:54:06.640Z,4.90
2023-03-24T00:56:40.684Z,5.28
2023-03-24T00:59:14.138Z,5.75
2023-03-24T01:01:45.300Z,5.68
2023-03-24T01:04:14.693Z,5.50
2023-03-24T01:06:47.217Z,5.55
2023-03-24T01:09:16.665Z,6.40
2023-03-24T01:11:46.480Z,5.40
2023-03-24T01:14:17.314Z,6.30
2023-03-24T01:16:47.087Z,6.40
2023-03-24T01:19:16.625Z,5.65
2023-03-24T01:21:48.549Z,6.63
2023-03-24T01:24:18.503Z,6.35
2023-03-24T01:26:48.519Z,6.75
2023-03-24T01:29:19.408Z,7.07
2023-03-24T01:31:49.300Z,6.47
2023-03-24T01:34:18.717Z,6.35
2023-03-24T01:36:48.465Z,5.72
2023-03-24T01:39:18.257Z,6.60
2023-03-24T01:41:48.232Z,5.65
2023-03-24T01:44:31.861Z,5.35
2023-03-24T01:47:03.510Z,5.15
2023-03-24T01:49:36.808Z,6.00
2023-03-24T01:52:12.562Z,6.95
2023-03-24T01:54:47.190Z,5.60
2023-03-24T01:57:22.596Z,5.45
2023-03-24T01:59:57.364Z,5.80
2023-03-24T02:02:49.665Z,5.70
2023-03-24T02:05:27.444Z,5.25
2023-03-24T02:08:05.711Z,6.40
2023-03-24T02:10:37.556Z,6.07
2023-03-24T02:13:08.088Z,6.60
2023-03-24T02:15:46.300Z,6.00
2023-03-24T02:18:25.529Z,5.68
2023-03-24T02:21:27.563Z,5.45
2023-03-24T02:24:43.426Z,5.45
2023-03-24T02:27:42.237Z,5.40
2023-03-24T02:30:35.465Z,5.00
2023-03-24T02:33:41.327Z,4.80
2023-03-24T02:36:51.083Z,4.83
2023-03-24T02:39:38.925Z,6.13
2023-03-24T02:42:22.268Z,4.97
2023-03-24T02:45:04.079Z,5.82
2023-03-24T02:47:42.580Z,6.07
2023-03-24T02:50:19.396Z,5.85
2023-03-24T02:52:54.218Z,6.82
2023-03-24T02:55:30.722Z,7.43
2023-03-24T02:58:06.171Z,6.90
2023-03-24T03:00:59.646Z,7.22
2023-03-24T03:03:56.998Z,6.68
2023-03-24T03:06:31.216Z,6.90
2023-03-24T03:09:07.849Z,6.22
2023-03-24T03:11:40.409Z,6.53
2023-03-24T03:14:14.121Z,6.50
2023-03-24T03:16:49.547Z,7.53
2023-03-24T03:19:23.671Z,6.47
2023-03-24T03:21:55.099Z,7.40
2023-03-24T03:24:29.799Z,7.55
2023-03-24T03:27:04.696Z,7.88
2023-03-24T03:29:38.496Z,7.05
2023-03-24T03:37:08.348Z,6.63
2023-03-24T03:42:15.806Z,8.40
2023-03-24T03:44:45.756Z,8.48
2023-03-24T03:47:16.461Z,8.20
2023-03-24T03:49:48.457Z,7.28
2023-03-24T03:52:19.101Z,6.95
2023-03-24T03:54:51.684Z,6.85
2023-03-24T03:57:23.076Z,7.22
2023-03-24T04:00:15.868Z,6.88
2023-03-24T04:03:14.438Z,6.07
2023-03-24T04:05:53.049Z,6.15
2023-03-24T04:08:31.524Z,6.47
2023-03-24T04:12:01.287Z,5.87
2023-03-24T04:15:02.119Z,5.95
2023-03-24T04:17:52.085Z,6.38
2023-03-24T04:20:48.408Z,6.88
2023-03-24T04:23:28.367Z,6.70
2023-03-24T04:26:14.871Z,6.63
2023-03-24T04:28:58.337Z,8.15
2023-03-24T04:31:37.303Z,7.40
2023-03-24T04:34:13.461Z,7.78
2023-03-24T04:36:50.668Z,8.75
2023-03-24T04:39:39.361Z,7.65
2023-03-24T04:42:21.181Z,7.35
2023-03-24T04:44:51.770Z,7.30
2023-03-24T04:47:26.942Z,7.10
2023-03-24T04:52:39.398Z,7.13
2023-03-24T04:55:35.909Z,7.53
2023-03-24T04:58:06.237Z,6.47
2023-03-24T05:00:37.018Z,6.80
2023-03-24T05:03:08.565Z,7.55
2023-03-24T05:05:37.964Z,7.03
2023-03-24T05:08:08.539Z,7.63
2023-03-24T05:10:41.157Z,14.02
2023-03-24T05:13:11.875Z,14.10
2023-03-24T05:15:56.012Z,15.95
2023-03-24T05:18:32.945Z,28.40
2023-03-24T05:21:02.429Z,17.15
2023-03-24T05:23:32.103Z,18.63
2023-03-24T05:26:01.487Z,12.70
2023-03-24T05:28:33.964Z,12.55
2023-03-24T05:31:03.584Z,12.50
2023-03-24T05:34:03.549Z,8.50
2023-03-24T05:36:35.895Z,8.23
2023-03-24T05:39:05.672Z,7.38
2023-03-24T05:41:45.208Z,7.40
2023-03-24T05:44:14.762Z,8.48
2023-03-24T05:46:47.426Z,11.57
2023-03-24T05:49:18.390Z,8.02
2023-03-24T05:51:47.938Z,8.93
2023-03-24T05:54:17.576Z,9.25
2023-03-24T05:56:49.562Z,12.35
2023-03-24T05:59:31.128Z,9.48
2023-03-24T06:02:19.313Z,7.25
2023-03-24T06:05:01.746Z,6.85
2023-03-24T06:07:32.369Z,6.70
2023-03-24T06:10:03.675Z,7.03
2023-03-24T06:12:47.800Z,6.50
2023-03-24T06:15:18.095Z,7.40
2023-03-24T06:17:54.915Z,7.53
2023-03-24T06:20:39.218Z,7.18
2023-03-24T06:23:10.612Z,8.35
2023-03-24T06:25:58.458Z,8.02
2023-03-24T06:28:30.469Z,7.25
2023-03-24T06:31:05.886Z,7.82
2023-03-24T06:33:38.796Z,8.23
2023-03-24T06:36:12.575Z,8.35
2023-03-24T06:38:44.303Z,8.13
2023-03-24T06:41:18.284Z,8.75
2023-03-24T06:43:49.354Z,9.27
2023-03-24T06:46:19.004Z,8.55
2023-03-24T06:48:49.414Z,9.02
2023-03-24T06:51:21.337Z,9.00
2023-03-24T06:53:50.768Z,9.70
2023-03-24T06:56:21.588Z,9.52
2023-03-24T06:58:58.944Z,9.52
2023-03-24T07:01:35.215Z,9.73
2023-03-24T07:04:18.118Z,9.25
2023-03-24T07:07:52.710Z,8.18
2023-03-24T07:10:38.035Z,7.65
2023-03-24T07:13:08.128Z,7.68
2023-03-24T07:15:39.302Z,9.73
2023-03-24T07:18:09.415Z,8.90
2023-03-24T07:20:46.952Z,7.55
2023-03-24T07:23:20.576Z,8.60
2023-03-24T07:25:49.983Z,8.65
2023-03-24T07:28:45.686Z,7.70
2023-03-24T07:31:16.939Z,8.23
2023-03-24T07:33:48.318Z,7.65
2023-03-24T07:36:18.117Z,8.10
2023-03-24T07:38:49.276Z,7.90
2023-03-24T07:41:27.790Z,8.68
2023-03-24T07:44:01.389Z,7.40
2023-03-24T07:46:36.572Z,8.50
2023-03-24T07:49:18.261Z,7.28
2023-03-24T07:51:55.163Z,8.15
2023-03-24T07:54:29.754Z,7.80
2023-03-24T07:56:59.205Z,8.70
2023-03-24T07:59:29.203Z,8.10
2023-03-24T08:02:20.255Z,8.00
2023-03-24T08:05:05.985Z,8.13
2023-03-24T08:07:55.879Z,8.43
2023-03-24T08:10:28.853Z,9.60
2023-03-24T08:12:59.338Z,8.90
2023-03-24T08:15:30.177Z,8.75
2023-03-24T08:17:59.737Z,8.82
2023-03-24T08:20:29.690Z,8.50
2023-03-24T08:22:59.091Z,9.88
2023-03-24T08:25:30.095Z,9.43
2023-03-24T08:27:59.648Z,9.68
2023-03-24T08:30:29.458Z,9.73
2023-03-24T08:33:01.637Z,10.88
2023-03-24T08:35:34.147Z,11.00
2023-03-24T08:38:06.827Z,9.75
2023-03-24T08:40:39.793Z,10.65
2023-03-24T08:43:12.476Z,10.48
2023-03-24T08:45:42.397Z,10.57
2023-03-24T08:48:11.985Z,9.93
2023-03-24T08:50:43.066Z,11.60
2023-03-24T08:53:13.493Z,11.02
2023-03-24T08:55:45.571Z,9.93
2023-03-24T08:58:16.524Z,10.10
2023-03-24T09:00:47.345Z,10.40
2023-03-24T09:03:22.641Z,10.32
2023-03-24T09:05:57.336Z,9.32
2023-03-24T09:08:27.639Z,10.40
2023-03-24T09:10:58.552Z,10.40
2023-03-24T09:13:28.329Z,10.00
2023-03-24T09:16:01.923Z,9.43
2023-03-24T09:18:31.714Z,9.23
2023-03-24T09:21:01.638Z,8.98
2023-03-24T09:23:31.710Z,9.02
2023-03-24T09:26:03.886Z,9.00
2023-03-24T09:28:33.144Z,7.90
2023-03-24T09:31:05.931Z,9.32
2023-03-24T09:33:36.013Z,8.65
2023-03-24T09:36:06.814Z,8.55
2023-03-24T09:38:36.072Z,8.43
2023-03-24T09:41:16.385Z,8.30
2023-03-24T09:43:51.805Z,7.57
2023-03-24T09:46:33.334Z,8.35
2023-03-24T09:49:02.666Z,8.70
2023-03-24T09:51:37.507Z,8.27
2023-03-24T09:54:17.718Z,8.10
2023-03-24T09:56:51.656Z,7.82
2023-03-24T09:59:22.974Z,8.25
2023-03-24T10:01:52.564Z,7.63
2023-03-24T10:04:26.494Z,7.20
2023-03-24T10:07:03.095Z,7.60
2023-03-24T10:09:35.669Z,8.18
2023-03-24T10:12:20.492Z,7.93
2023-03-24T10:15:05.168Z,6.93
2023-03-24T10:17:46.707Z,7.00
2023-03-24T10:20:28.883Z,8.10
2023-03-24T10:23:05.652Z,8.18
2023-03-24T10:25:48.241Z,8.60
2023-03-24T10:28:23.647Z,8.20
2023-03-24T10:30:55.589Z,8.82
2023-03-24T10:33:25.355Z,9.05
2023-03-24T10:36:02.613Z,8.95
2023-03-24T10:38:32.359Z,8.45
2023-03-24T10:41:03.172Z,8.07
2023-03-24T10:43:34.516Z,8.40
2023-03-24T10:46:04.374Z,7.20
2023-03-24T10:48:45.779Z,8.15
2023-03-24T10:51:20.562Z,7.65
2023-03-24T10:53:50.832Z,7.22
2023-03-24T10:56:39.401Z,7.70
2023-03-24T10:59:27.590Z,6.45
2023-03-24T11:02:14.435Z,6.20
2023-03-24T11:04:52.075Z,6.55
2023-03-24T11:07:23.291Z,6.03
2023-03-24T11:10:02.106Z,6.90
2023-03-24T11:12:33.368Z,6.50
2023-03-24T11:15:22.085Z,6.60
2023-03-24T11:17:57.366Z,7.25
2023-03-24T11:20:32.388Z,6.60
2023-03-24T11:23:03.875Z,6.80
2023-03-24T11:25:36.986Z,6.22
2023-03-24T11:28:10.417Z,5.80
2023-03-24T11:30:49.958Z,5.40
2023-03-24T11:33:35.282Z,5.47
2023-03-24T11:36:26.738Z,5.32
2023-03-24T11:39:01.344Z,5.72
2023-03-24T11:41:31.681Z,5.78
2023-03-24T11:44:18.464Z,5.70
2023-03-24T11:46:52.779Z,5.72
2023-03-24T11:49:27.816Z,5.50
2023-03-24T11:51:58.033Z,5.80
2023-03-24T11:54:33.267Z,6.05
2023-03-24T11:57:08.434Z,5.20
2023-03-24T11:59:43.732Z,5.97
2023-03-24T12:02:24.252Z,6.32
2023-03-24T12:05:05.191Z,6.30
2023-03-24T12:07:56.555Z,5.85
2023-03-24T12:10:36.550Z,6.50
2023-03-24T12:13:22.170Z,6.05
2023-03-24T12:16:01.880Z,5.75
2023-03-24T12:18:59.258Z,5.75
2023-03-24T12:21:48.382Z,5.25
2023-03-24T12:24:30.022Z,5.95
2023-03-24T12:27:01.767Z,5.70
2023-03-24T12:29:51.229Z,5.60
2023-03-24T12:32:39.722Z,5.18
2023-03-24T12:35:28.454Z,4.72
2023-03-24T12:38:13.190Z,5.35
2023-03-24T12:41:23.087Z,4.72
2023-03-24T12:44:11.872Z,5.47
2023-03-24T12:46:53.842Z,5.30
2023-03-24T12:49:43.867Z,4.60
2023-03-24T12:52:42.155Z,4.28
2023-03-24T12:55:18.440Z,4.03
2023-03-24T12:57:53.061Z,4.30
2023-03-24T13:00:25.976Z,4.25
2023-03-24T13:02:59.337Z,4.13
2023-03-24T13:05:32.524Z,4.28
2023-03-24T13:08:11.236Z,4.80
2023-03-24T13:10:42.230Z,4.53
2023-03-24T13:13:17.388Z,4.47
2023-03-24T13:15:50.905Z,4.30
2023-03-24T13:18:30.803Z,4.03
2023-03-24T13:21:05.792Z,4.43
2023-03-24T13:23:43.397Z,4.47
2023-03-24T13:26:27.650Z,4.60
2023-03-24T13:29:15.892Z,4.47
2023-03-24T13:31:51.691Z,4.35
2023-03-24T13:34:32.437Z,4.30
2023-03-24T13:37:06.853Z,4.07
2023-03-24T13:39:39.116Z,3.90
2023-03-24T13:42:09.250Z,4.32
2023-03-24T13:44:42.604Z,3.83
2023-03-24T13:47:15.879Z,3.97
2023-03-24T13:49:54.599Z,3.80
2023-03-24T13:52:30.174Z,4.13
2023-03-24T13:55:04.160Z,4.95
2023-03-24T13:57:33.552Z,4.78
2023-03-24T14:00:18.098Z,5.60
2023-03-24T14:02:50.374Z,4.35
2023-03-24T14:06:02.144Z,4.22
2023-03-24T14:08:44.156Z,4.18
2023-03-24T14:11:50.094Z,4.38
2023-03-24T14:14:22.617Z,5.63
2023-03-24T14:17:13.286Z,4.00
2023-03-24T14:19:44.629Z,3.72
2023-03-24T14:22:23.079Z,3.65
2023-03-24T14:25:00.637Z,3.78
2023-03-24T14:27:36.356Z,3.70
2023-03-24T14:30:17.242Z,3.22
2023-03-24T14:32:50.884Z,3.40
2023-03-24T14:35:28.429Z,3.72
2023-03-24T14:38:01.651Z,3.45
2023-03-24T14:40:35.736Z,3.25
2023-03-24T14:43:19.918Z,3.35
2023-03-24T14:46:01.575Z,3.70
2023-03-24T14:48:40.394Z,3.38
2023-03-24T14:51:36.841Z,3.72
2023-03-24T14:54:13.937Z,3.53
2023-03-24T14:56:47.189Z,4.57
2023-03-24T14:59:34.928Z,3.70
2023-03-24T15:02:16.861Z,4.00
2023-03-24T15:05:17.944Z,3.50
2023-03-24T15:07:59.175Z,3.72
2023-03-24T15:10:33.389Z,3.10
2023-03-24T15:13:03.130Z,2.80
2023-03-24T15:15:34.627Z,2.92
2023-03-24T15:18:04.481Z,3.00
2023-03-24T15:20:36.086Z,3.08
2023-03-24T15:23:08.767Z,3.05
2023-03-24T15:25:43.353Z,3.00
2023-03-24T15:28:20.063Z,4.00
2023-03-24T15:30:51.646Z,2.97
2023-03-24T15:33:21.943Z,3.20
2023-03-24T15:35:58.305Z,3.20
2023-03-24T15:38:31.311Z,3.10
2023-03-24T15:41:03.720Z,3.47
2023-03-24T15:43:32.963Z,9.38
2023-03-24T15:46:12.445Z,8.75
2023-03-24T15:48:42.497Z,24.58
2023-03-24T15:51:12.991Z,12.30
2023-03-24T15:53:45.150Z,5.22
2023-03-24T15:56:21.104Z,3.80
2023-03-24T15:58:55.870Z,3.45
2023-03-24T16:01:36.458Z,3.13
2023-03-24T16:04:09.183Z,7.95
2023-03-24T16:06:43.256Z,2.95
2023-03-24T16:09:16.927Z,3.17
2023-03-24T16:11:46.507Z,1.92
2023-03-24T16:14:24.301Z,2.53
2023-03-24T16:16:58.042Z,2.65
2023-03-24T16:19:28.715Z,2.40
2023-03-24T16:21:59.951Z,3.30
2023-03-24T16:24:29.538Z,2.30
2023-03-24T16:26:59.046Z,2.20
2023-03-24T16:29:28.393Z,2.45
2023-03-24T16:32:00.749Z,3.00
2023-03-24T16:34:30.059Z,2.60
2023-03-24T16:36:59.968Z,3.35
2023-03-24T16:39:31.097Z,3.47
2023-03-24T16:42:01.018Z,2.72
2023-03-24T16:44:30.309Z,3.53
2023-03-24T16:47:01.593Z,4.07
2023-03-24T16:49:30.937Z,4.25
2023-03-24T16:52:00.489Z,5.03
2023-03-24T16:54:29.758Z,4.13
2023-03-24T16:56:59.489Z,6.07
2023-03-24T16:59:28.730Z,4.63
2023-03-24T17:02:05.781Z,5.00
2023-03-24T17:04:35.452Z,3.30
2023-03-24T17:07:05.033Z,2.90
2023-03-24T17:09:35.359Z,3.33
2023-03-24T17:12:05.524Z,3.35
2023-03-24T17:14:34.985Z,2.70
2023-03-24T17:17:07.377Z,2.42
2023-03-24T17:19:37.826Z,3.05
2023-03-24T17:22:08.215Z,2.85
2023-03-24T17:24:41.598Z,4.18
2023-03-24T17:27:14.269Z,3.95
2023-03-24T17:29:43.821Z,4.53
2023-03-24T17:32:17.323Z,4.57
2023-03-24T17:34:47.251Z,6.15
2023-03-24T17:37:16.768Z,5.65
2023-03-24T17:39:46.268Z,5.55
2023-03-24T17:42:15.835Z,8.30
2023-03-24T17:44:45.246Z,7.30
2023-03-24T17:47:16.796Z,8.75
2023-03-24T17:49:46.180Z,7.40
2023-03-24T17:52:16.887Z,9.15
2023-03-24T17:54:46.509Z,7.88
2023-03-24T17:57:16.281Z,6.50
2023-03-24T17:59:45.868Z,7.88
2023-03-24T18:02:17.889Z,6.60
2023-03-24T18:04:47.570Z,8.07
2023-03-24T18:07:17.713Z,8.95
2023-03-24T18:09:46.977Z,8.32
2023-03-24T18:12:17.686Z,7.05
2023-03-24T18:14:47.633Z,6.85
2023-03-24T18:17:19.651Z,8.32
2023-03-24T18:19:50.370Z,7.90
2023-03-24T18:22:21.823Z,8.30
2023-03-24T18:24:52.081Z,7.43
2023-03-24T18:27:22.538Z,7.57
2023-03-24T18:29:51.929Z,7.28
2023-03-24T18:32:23.461Z,6.00
2023-03-24T18:34:53.293Z,5.53
2023-03-24T18:37:30.385Z,5.90
2023-03-24T18:40:00.490Z,7.35
2023-03-24T18:42:31.519Z,6.03
2023-03-24T18:45:02.418Z,6.57
2023-03-24T18:47:33.473Z,3.92
2023-03-24T18:50:03.576Z,4.55
2023-03-24T18:52:33.224Z,4.43
2023-03-24T18:55:03.014Z,6.28
2023-03-24T18:57:34.552Z,5.07
2023-03-24T19:00:06.830Z,7.60
2023-03-24T19:02:40.970Z,5.07
2023-03-24T19:05:11.107Z,7.82
2023-03-24T19:07:41.188Z,7.05
2023-03-24T19:10:11.498Z,7.60
2023-03-24T19:12:41.885Z,8.07
2023-03-24T19:15:13.722Z,8.00
2023-03-24T19:17:44.819Z,7.15
2023-03-24T19:20:15.509Z,8.80
2023-03-24T19:22:45.087Z,7.35
2023-03-24T19:25:16.163Z,8.32
2023-03-24T19:27:47.716Z,6.78
2023-03-24T19:30:18.377Z,8.18
2023-03-24T19:32:51.253Z,7.70
2023-03-24T19:35:20.635Z,9.02
2023-03-24T19:37:50.625Z,9.35
2023-03-24T19:40:20.335Z,10.68
2023-03-24T19:42:50.391Z,9.07
2023-03-24T19:45:20.354Z,9.75
2023-03-24T19:47:53.690Z,6.40
2023-03-24T19:50:23.105Z,9.20
2023-03-24T19:52:52.989Z,8.15
2023-03-24T19:55:22.692Z,8.82
2023-03-24T19:57:53.617Z,6.40
2023-03-24T20:00:23.302Z,6.22
2023-03-24T20:02:54.492Z,6.45
2023-03-24T20:05:24.069Z,6.15
2023-03-24T20:07:55.573Z,7.88
2023-03-24T20:10:25.748Z,4.85
2023-03-24T20:12:56.256Z,6.03
2023-03-24T20:15:27.044Z,8.10
2023-03-24T20:17:58.406Z,9.30
2023-03-24T20:20:27.704Z,6.68
2023-03-24T20:22:57.585Z,6.63
2023-03-24T20:25:26.871Z,7.15
2023-03-24T20:27:56.839Z,7.40
2023-03-24T20:30:28.239Z,7.13
2023-03-24T20:32:59.410Z,7.72
2023-03-24T20:35:29.137Z,7.85
2023-03-24T20:37:58.710Z,8.70
2023-03-24T20:40:30.249Z,9.65
2023-03-24T20:43:00.142Z,10.20
2023-03-24T20:45:32.059Z,11.02
2023-03-24T20:48:06.099Z,11.02
2023-03-24T20:50:36.985Z,9.85
2023-03-24T20:53:07.505Z,9.10
2023-03-24T20:55:36.955Z,10.18
2023-03-24T20:58:08.340Z,9.38
2023-03-24T21:00:38.197Z,9.57
2023-03-24T21:03:12.258Z,10.02
2023-03-24T21:05:41.992Z,9.90
2023-03-24T21:08:12.691Z,8.65
2023-03-24T21:10:42.045Z,8.88
2023-03-24T21:13:12.104Z,8.18
2023-03-24T21:15:44.531Z,8.90
2023-03-24T21:18:15.676Z,9.68
2023-03-24T21:20:55.184Z,8.73
2023-03-24T21:23:25.526Z,8.88
2023-03-24T21:25:54.745Z,8.27
2023-03-24T21:28:28.147Z,8.05
2023-03-24T21:30:57.594Z,6.57
2023-03-24T21:33:30.572Z,8.15
2023-03-24T21:36:00.000Z,7.70
2023-03-24T21:38:29.692Z,7.55
2023-03-24T21:40:59.948Z,9.05
2023-03-24T21:43:30.486Z,9.88
2023-03-24T21:46:00.343Z,8.60
2023-03-24T21:48:34.874Z,9.00
2023-03-24T21:51:05.604Z,8.93
2023-03-24T21:53:35.262Z,8.60
2023-03-24T21:56:05.463Z,8.68
2023-03-24T21:58:35.664Z,8.60
2023-03-24T22:01:05.155Z,8.82
2023-03-24T22:03:37.475Z,8.18
2023-03-24T22:06:10.761Z,7.85
2023-03-24T22:08:43.757Z,9.07
2023-03-24T22:11:15.461Z,7.30
2023-03-24T22:13:45.921Z,8.13
2023-03-24T22:16:15.942Z,6.80
2023-03-24T22:18:47.832Z,7.00
2023-03-24T22:21:17.157Z,6.82
2023-03-24T22:23:46.843Z,6.85
2023-03-24T22:26:17.964Z,7.13
2023-03-24T22:28:47.609Z,6.85
2023-03-24T22:31:18.100Z,5.32
2023-03-24T22:33:49.785Z,6.60
2023-03-24T22:36:19.320Z,7.40
2023-03-24T22:38:49.109Z,7.13
2023-03-24T22:41:18.414Z,5.90
2023-03-24T22:43:47.942Z,6.07
2023-03-24T22:46:17.437Z,5.93
2023-03-24T22:48:48.430Z,7.20
2023-03-24T22:51:19.589Z,6.47
2023-03-24T22:53:49.937Z,6.88
2023-03-24T22:56:19.485Z,7.10
2023-03-24T22:58:49.102Z,7.28
2023-03-24T23:01:18.668Z,7.53
2023-03-24T23:03:49.686Z,7.03
2023-03-24T23:06:19.762Z,6.53
2023-03-24T23:08:50.688Z,7.20
2023-03-24T23:11:19.875Z,7.50
2023-03-24T23:13:50.430Z,6.53
2023-03-24T23:16:20.196Z,5.70
2023-03-24T23:18:51.826Z,6.25
2023-03-24T23:21:21.183Z,6.07
2023-03-24T23:23:51.218Z,6.80
2023-03-24T23:26:26.564Z,7.45
2023-03-24T23:28:57.030Z,6.70
2023-03-24T23:31:28.124Z,7.18
2023-03-24T23:34:00.052Z,7.35
2023-03-24T23:36:29.478Z,6.78
2023-03-24T23:38:59.458Z,5.80
2023-03-24T23:41:29.100Z,7.55
2023-03-24T23:43:58.748Z,7.05
2023-03-24T23:46:28.460Z,6.53
2023-03-24T23:48:59.479Z,6.45
2023-03-24T23:51:29.075Z,6.47
2023-03-24T23:53:58.674Z,6.50
2023-03-24T23:56:30.676Z,6.32
2023-03-24T23:59:01.371Z,5.72
